sensor_id;sensor_type;location;lat;lon;timestamp;pressure;altitude;pressure_sealevel;temperature;humidity
60874;BME280;46715;40.642;-7.920;2022-09-25T00:00:42;96265.38;;;12.77;59.49
60874;BME280;46715;40.642;-7.920;2022-09-25T00:02:43;96258.66;;;12.90;58.82
60874;BME280;46715;40.642;-7.920;2022-09-25T00:04:44;96260.34;;;13.00;58.94
60874;BME280;46715;40.642;-7.920;2022-09-25T00:06:45;96257.97;;;13.04;58.68
60874;BME280;46715;40.642;-7.920;2022-09-25T00:08:49;96253.16;;;13.11;58.65
60874;BME280;46715;40.642;-7.920;2022-09-25T00:10:50;96244.97;;;13.18;58.17
60874;BME280;46715;40.642;-7.920;2022-09-25T00:12:52;96239.50;;;13.14;58.12
60874;BME280;46715;40.642;-7.920;2022-09-25T00:14:52;96235.25;;;13.18;58.10
60874;BME280;46715;40.642;-7.920;2022-09-25T00:16:53;96229.53;;;13.16;58.29
60874;BME280;46715;40.642;-7.920;2022-09-25T00:18:57;96227.97;;;13.15;58.43
60874;BME280;46715;40.642;-7.920;2022-09-25T00:21:19;96230.38;;;13.11;58.86
60874;BME280;46715;40.642;-7.920;2022-09-25T00:23:20;96231.44;;;13.10;58.81
60874;BME280;46715;40.642;-7.920;2022-09-25T00:25:21;96224.06;;;13.12;58.51
60874;BME280;46715;40.642;-7.920;2022-09-25T00:27:22;96226.28;;;13.24;58.50
60874;BME280;46715;40.642;-7.920;2022-09-25T00:29:23;96222.22;;;13.32;58.26
60874;BME280;46715;40.642;-7.920;2022-09-25T00:31:23;96225.19;;;13.25;58.44
60874;BME280;46715;40.642;-7.920;2022-09-25T00:33:24;96218.69;;;13.23;58.64
60874;BME280;46715;40.642;-7.920;2022-09-25T00:35:25;96221.38;;;13.18;58.47
60874;BME280;46715;40.642;-7.920;2022-09-25T00:37:26;96211.69;;;13.18;58.74
60874;BME280;46715;40.642;-7.920;2022-09-25T00:39:31;96204.97;;;13.12;59.50
60874;BME280;46715;40.642;-7.920;2022-09-25T00:41:32;96214.31;;;13.18;59.02
60874;BME280;46715;40.642;-7.920;2022-09-25T00:43:41;96208.59;;;13.16;59.02
60874;BME280;46715;40.642;-7.920;2022-09-25T00:45:44;96192.09;;;13.16;58.83
60874;BME280;46715;40.642;-7.920;2022-09-25T00:49:52;96188.47;;;13.11;59.40
60874;BME280;46715;40.642;-7.920;2022-09-25T00:52:10;96189.97;;;13.18;59.45
60874;BME280;46715;40.642;-7.920;2022-09-25T00:54:20;96191.59;;;13.13;59.34
60874;BME280;46715;40.642;-7.920;2022-09-25T00:56:22;96192.25;;;13.05;59.50
60874;BME280;46715;40.642;-7.920;2022-09-25T00:58:23;96189.06;;;13.08;59.55
60874;BME280;46715;40.642;-7.920;2022-09-25T01:00:27;96193.72;;;13.11;59.16
60874;BME280;46715;40.642;-7.920;2022-09-25T01:02:30;96194.34;;;13.03;60.04
60874;BME280;46715;40.642;-7.920;2022-09-25T01:04:34;96200.66;;;13.02;59.62
60874;BME280;46715;40.642;-7.920;2022-09-25T01:06:38;96189.97;;;12.99;60.15
60874;BME280;46715;40.642;-7.920;2022-09-25T01:08:39;96188.91;;;13.00;60.29
60874;BME280;46715;40.642;-7.920;2022-09-25T01:10:40;96179.38;;;12.90;60.12
60874;BME280;46715;40.642;-7.920;2022-09-25T01:12:44;96177.59;;;12.85;60.37
60874;BME280;46715;40.642;-7.920;2022-09-25T01:14:46;96178.59;;;12.89;60.86
60874;BME280;46715;40.642;-7.920;2022-09-25T01:17:02;96181.34;;;12.79;61.24
60874;BME280;46715;40.642;-7.920;2022-09-25T01:19:20;96177.22;;;12.73;61.42
60874;BME280;46715;40.642;-7.920;2022-09-25T01:31:00;96164.53;;;12.66;62.00
60874;BME280;46715;40.642;-7.920;2022-09-25T01:33:14;96156.44;;;12.62;61.79
60874;BME280;46715;40.642;-7.920;2022-09-25T01:35:28;96155.50;;;12.53;62.75
60874;BME280;46715;40.642;-7.920;2022-09-25T01:37:47;96154.81;;;12.67;62.18
60874;BME280;46715;40.642;-7.920;2022-09-25T01:42:12;96150.09;;;12.50;62.55
60874;BME280;46715;40.642;-7.920;2022-09-25T01:44:27;96154.53;;;12.49;62.89
60874;BME280;46715;40.642;-7.920;2022-09-25T01:46:34;96150.66;;;12.47;63.22
60874;BME280;46715;40.642;-7.920;2022-09-25T01:48:38;96154.09;;;12.42;63.35
60874;BME280;46715;40.642;-7.920;2022-09-25T01:50:48;96154.94;;;12.37;63.53
60874;BME280;46715;40.642;-7.920;2022-09-25T01:52:53;96154.38;;;12.40;63.59
60874;BME280;46715;40.642;-7.920;2022-09-25T01:55:11;96165.47;;;12.32;63.71
60874;BME280;46715;40.642;-7.920;2022-09-25T01:57:24;96160.47;;;12.36;63.23
60874;BME280;46715;40.642;-7.920;2022-09-25T01:59:47;96160.94;;;12.38;63.70
60874;BME280;46715;40.642;-7.920;2022-09-25T02:01:49;96156.84;;;12.32;63.88
60874;BME280;46715;40.642;-7.920;2022-09-25T02:03:57;96164.34;;;12.38;63.23
60874;BME280;46715;40.642;-7.920;2022-09-25T02:06:01;96154.72;;;12.34;63.89
60874;BME280;46715;40.642;-7.920;2022-09-25T02:08:29;96151.09;;;12.30;63.73
60874;BME280;46715;40.642;-7.920;2022-09-25T02:10:37;96146.44;;;12.26;63.61
60874;BME280;46715;40.642;-7.920;2022-09-25T02:12:43;96145.88;;;12.30;63.59
60874;BME280;46715;40.642;-7.920;2022-09-25T02:14:54;96152.94;;;12.29;63.58
60874;BME280;46715;40.642;-7.920;2022-09-25T02:16:57;96135.28;;;12.21;64.01
60874;BME280;46715;40.642;-7.920;2022-09-25T02:18:58;96140.00;;;12.19;63.94
60874;BME280;46715;40.642;-7.920;2022-09-25T02:21:40;96137.50;;;12.08;64.34
60874;BME280;46715;40.642;-7.920;2022-09-25T02:26:04;96145.84;;;12.10;64.04
60874;BME280;46715;40.642;-7.920;2022-09-25T02:28:06;96143.44;;;12.14;63.70
60874;BME280;46715;40.642;-7.920;2022-09-25T02:30:07;96142.78;;;12.27;63.46
60874;BME280;46715;40.642;-7.920;2022-09-25T02:32:12;96141.94;;;12.32;63.36
60874;BME280;46715;40.642;-7.920;2022-09-25T02:34:15;96137.88;;;12.21;63.67
60874;BME280;46715;40.642;-7.920;2022-09-25T02:36:20;96134.56;;;12.15;64.16
60874;BME280;46715;40.642;-7.920;2022-09-25T02:38:23;96144.69;;;12.22;64.08
60874;BME280;46715;40.642;-7.920;2022-09-25T02:40:32;96142.69;;;12.14;63.70
60874;BME280;46715;40.642;-7.920;2022-09-25T02:49:37;96128.34;;;12.11;63.76
60874;BME280;46715;40.642;-7.920;2022-09-25T02:52:03;96125.16;;;12.14;63.76
60874;BME280;46715;40.642;-7.920;2022-09-25T02:54:09;96128.28;;;12.16;64.07
60874;BME280;46715;40.642;-7.920;2022-09-25T02:56:50;96119.97;;;12.09;63.80
60874;BME280;46715;40.642;-7.920;2022-09-25T02:58:51;96129.38;;;12.10;64.40
60874;BME280;46715;40.642;-7.920;2022-09-25T03:00:55;96107.47;;;12.06;64.26
60874;BME280;46715;40.642;-7.920;2022-09-25T03:02:58;96116.03;;;12.11;64.08
60874;BME280;46715;40.642;-7.920;2022-09-25T03:05:01;96107.00;;;12.04;64.51
60874;BME280;46715;40.642;-7.920;2022-09-25T03:07:04;96106.56;;;11.91;64.70
60874;BME280;46715;40.642;-7.920;2022-09-25T03:09:08;96111.81;;;11.91;64.87
60874;BME280;46715;40.642;-7.920;2022-09-25T03:11:13;96097.63;;;11.98;64.52
60874;BME280;46715;40.642;-7.920;2022-09-25T03:13:25;96108.38;;;11.96;64.40
60874;BME280;46715;40.642;-7.920;2022-09-25T03:15:30;96110.25;;;11.90;64.68
60874;BME280;46715;40.642;-7.920;2022-09-25T03:17:32;96105.84;;;11.86;65.00
60874;BME280;46715;40.642;-7.920;2022-09-25T03:19:33;96103.28;;;11.81;64.77
60874;BME280;46715;40.642;-7.920;2022-09-25T03:21:34;96101.25;;;11.77;65.39
60874;BME280;46715;40.642;-7.920;2022-09-25T03:23:35;96103.91;;;11.72;65.18
60874;BME280;46715;40.642;-7.920;2022-09-25T03:25:36;96094.16;;;11.78;65.03
60874;BME280;46715;40.642;-7.920;2022-09-25T03:27:37;96102.00;;;11.78;65.53
60874;BME280;46715;40.642;-7.920;2022-09-25T03:29:38;96095.72;;;11.79;65.22
60874;BME280;46715;40.642;-7.920;2022-09-25T03:31:39;96099.97;;;11.75;65.35
60874;BME280;46715;40.642;-7.920;2022-09-25T03:33:42;96094.97;;;11.79;65.14
60874;BME280;46715;40.642;-7.920;2022-09-25T03:35:43;96094.44;;;11.76;65.04
60874;BME280;46715;40.642;-7.920;2022-09-25T03:37:44;96088.50;;;11.71;64.35
60874;BME280;46715;40.642;-7.920;2022-09-25T03:39:45;96089.00;;;11.73;64.55
60874;BME280;46715;40.642;-7.920;2022-09-25T03:41:46;96087.66;;;11.75;64.13
60874;BME280;46715;40.642;-7.920;2022-09-25T03:43:49;96094.34;;;11.87;63.87
60874;BME280;46715;40.642;-7.920;2022-09-25T03:45:51;96098.75;;;11.91;63.98
60874;BME280;46715;40.642;-7.920;2022-09-25T03:47:52;96103.72;;;11.88;63.81
60874;BME280;46715;40.642;-7.920;2022-09-25T03:49:52;96097.94;;;11.91;64.19
60874;BME280;46715;40.642;-7.920;2022-09-25T03:51:54;96103.00;;;11.82;63.95
60874;BME280;46715;40.642;-7.920;2022-09-25T03:53:55;96098.59;;;11.83;64.30
60874;BME280;46715;40.642;-7.920;2022-09-25T03:55:56;96100.13;;;11.84;64.12
60874;BME280;46715;40.642;-7.920;2022-09-25T03:57:57;96084.25;;;11.80;63.88
60874;BME280;46715;40.642;-7.920;2022-09-25T03:59:57;96090.47;;;11.84;63.84
60874;BME280;46715;40.642;-7.920;2022-09-25T04:02:00;96085.63;;;11.72;64.09
60874;BME280;46715;40.642;-7.920;2022-09-25T04:04:02;96096.06;;;11.72;64.25
60874;BME280;46715;40.642;-7.920;2022-09-25T04:06:04;96089.56;;;11.70;64.23
60874;BME280;46715;40.642;-7.920;2022-09-25T04:08:05;96084.16;;;11.61;64.52
60874;BME280;46715;40.642;-7.920;2022-09-25T04:10:06;96089.13;;;11.63;64.22
60874;BME280;46715;40.642;-7.920;2022-09-25T04:12:07;96086.94;;;11.70;64.53
60874;BME280;46715;40.642;-7.920;2022-09-25T04:14:08;96086.78;;;11.61;64.80
60874;BME280;46715;40.642;-7.920;2022-09-25T04:16:11;96088.63;;;11.60;64.69
60874;BME280;46715;40.642;-7.920;2022-09-25T04:18:12;96081.88;;;11.54;64.45
60874;BME280;46715;40.642;-7.920;2022-09-25T04:20:15;96086.94;;;11.46;65.20
60874;BME280;46715;40.642;-7.920;2022-09-25T04:22:17;96078.78;;;11.52;64.90
60874;BME280;46715;40.642;-7.920;2022-09-25T04:24:19;96085.00;;;11.56;64.75
60874;BME280;46715;40.642;-7.920;2022-09-25T04:26:38;96077.53;;;11.45;64.64
60874;BME280;46715;40.642;-7.920;2022-09-25T04:28:39;96069.88;;;11.53;64.47
60874;BME280;46715;40.642;-7.920;2022-09-25T04:30:40;96078.72;;;11.57;64.11
60874;BME280;46715;40.642;-7.920;2022-09-25T04:32:40;96066.00;;;11.51;63.88
60874;BME280;46715;40.642;-7.920;2022-09-25T04:35:00;96067.78;;;11.55;63.85
60874;BME280;46715;40.642;-7.920;2022-09-25T04:37:01;96071.41;;;11.59;63.67
60874;BME280;46715;40.642;-7.920;2022-09-25T04:39:03;96070.84;;;11.63;63.82
60874;BME280;46715;40.642;-7.920;2022-09-25T04:41:04;96064.31;;;11.60;63.38
60874;BME280;46715;40.642;-7.920;2022-09-25T04:43:06;96066.34;;;11.68;63.39
60874;BME280;46715;40.642;-7.920;2022-09-25T04:45:07;96064.72;;;11.72;62.77
60874;BME280;46715;40.642;-7.920;2022-09-25T04:47:08;96063.34;;;11.80;62.59
60874;BME280;46715;40.642;-7.920;2022-09-25T04:49:09;96056.97;;;11.86;62.38
60874;BME280;46715;40.642;-7.920;2022-09-25T04:51:09;96058.53;;;11.87;62.19
60874;BME280;46715;40.642;-7.920;2022-09-25T04:53:10;96068.22;;;11.87;62.71
60874;BME280;46715;40.642;-7.920;2022-09-25T04:55:12;96066.38;;;11.87;62.36
60874;BME280;46715;40.642;-7.920;2022-09-25T04:57:14;96060.22;;;11.78;62.24
60874;BME280;46715;40.642;-7.920;2022-09-25T04:59:15;96065.16;;;11.80;62.69
60874;BME280;46715;40.642;-7.920;2022-09-25T05:01:23;96058.25;;;11.89;62.21
60874;BME280;46715;40.642;-7.920;2022-09-25T05:03:23;96059.53;;;11.97;61.92
60874;BME280;46715;40.642;-7.920;2022-09-25T05:05:24;96059.44;;;12.02;61.70
60874;BME280;46715;40.642;-7.920;2022-09-25T05:07:27;96057.97;;;11.96;61.71
60874;BME280;46715;40.642;-7.920;2022-09-25T05:09:29;96058.72;;;11.96;61.80
60874;BME280;46715;40.642;-7.920;2022-09-25T05:11:29;96062.34;;;12.00;61.31
60874;BME280;46715;40.642;-7.920;2022-09-25T05:13:30;96055.81;;;11.98;62.10
60874;BME280;46715;40.642;-7.920;2022-09-25T05:15:32;96066.84;;;11.94;62.16
60874;BME280;46715;40.642;-7.920;2022-09-25T05:17:33;96064.66;;;12.02;62.04
60874;BME280;46715;40.642;-7.920;2022-09-25T05:19:33;96051.59;;;12.02;61.91
60874;BME280;46715;40.642;-7.920;2022-09-25T05:21:35;96053.22;;;11.98;61.99
60874;BME280;46715;40.642;-7.920;2022-09-25T05:23:36;96052.94;;;11.99;62.16
60874;BME280;46715;40.642;-7.920;2022-09-25T05:25:37;96058.38;;;12.03;62.23
60874;BME280;46715;40.642;-7.920;2022-09-25T05:27:38;96052.31;;;12.07;61.72
60874;BME280;46715;40.642;-7.920;2022-09-25T05:29:38;96060.38;;;12.11;61.73
60874;BME280;46715;40.642;-7.920;2022-09-25T05:31:40;96060.72;;;12.04;62.53
60874;BME280;46715;40.642;-7.920;2022-09-25T05:33:42;96060.66;;;12.09;62.17
60874;BME280;46715;40.642;-7.920;2022-09-25T05:35:43;96062.34;;;12.00;62.26
60874;BME280;46715;40.642;-7.920;2022-09-25T05:37:44;96059.66;;;12.05;62.06
60874;BME280;46715;40.642;-7.920;2022-09-25T05:39:44;96066.78;;;12.00;62.49
60874;BME280;46715;40.642;-7.920;2022-09-25T05:41:45;96065.84;;;12.15;62.23
60874;BME280;46715;40.642;-7.920;2022-09-25T05:43:46;96056.91;;;12.16;61.59
60874;BME280;46715;40.642;-7.920;2022-09-25T05:45:54;96057.06;;;12.05;62.27
60874;BME280;46715;40.642;-7.920;2022-09-25T05:48:02;96058.66;;;12.01;62.55
60874;BME280;46715;40.642;-7.920;2022-09-25T05:50:04;96054.16;;;12.07;62.53
60874;BME280;46715;40.642;-7.920;2022-09-25T05:52:05;96061.06;;;11.98;62.60
60874;BME280;46715;40.642;-7.920;2022-09-25T05:54:06;96054.16;;;11.83;63.09
60874;BME280;46715;40.642;-7.920;2022-09-25T05:56:07;96050.44;;;11.89;62.83
60874;BME280;46715;40.642;-7.920;2022-09-25T05:58:09;96059.41;;;11.83;62.98
60874;BME280;46715;40.642;-7.920;2022-09-25T06:00:10;96057.97;;;11.90;62.40
60874;BME280;46715;40.642;-7.920;2022-09-25T06:02:15;96060.44;;;11.82;62.86
60874;BME280;46715;40.642;-7.920;2022-09-25T06:04:16;96066.84;;;11.70;63.57
60874;BME280;46715;40.642;-7.920;2022-09-25T06:06:17;96063.72;;;11.68;63.67
60874;BME280;46715;40.642;-7.920;2022-09-25T06:08:18;96066.19;;;11.59;64.00
60874;BME280;46715;40.642;-7.920;2022-09-25T06:10:19;96071.69;;;11.58;63.75
60874;BME280;46715;40.642;-7.920;2022-09-25T06:12:19;96071.69;;;11.58;64.12
60874;BME280;46715;40.642;-7.920;2022-09-25T06:14:23;96064.22;;;11.70;63.57
60874;BME280;46715;40.642;-7.920;2022-09-25T06:16:24;96064.75;;;11.67;63.73
60874;BME280;46715;40.642;-7.920;2022-09-25T06:18:25;96070.41;;;11.55;64.02
60874;BME280;46715;40.642;-7.920;2022-09-25T06:20:26;96063.59;;;11.54;64.88
60874;BME280;46715;40.642;-7.920;2022-09-25T06:22:27;96064.72;;;11.48;65.08
60874;BME280;46715;40.642;-7.920;2022-09-25T06:24:27;96070.22;;;11.47;65.14
60874;BME280;46715;40.642;-7.920;2022-09-25T06:26:28;96068.66;;;11.46;65.29
60874;BME280;46715;40.642;-7.920;2022-09-25T06:28:29;96068.09;;;11.49;66.23
60874;BME280;46715;40.642;-7.920;2022-09-25T06:30:33;96081.94;;;11.49;65.22
60874;BME280;46715;40.642;-7.920;2022-09-25T06:32:34;96075.44;;;11.47;65.28
60874;BME280;46715;40.642;-7.920;2022-09-25T06:34:35;96079.28;;;11.54;65.83
60874;BME280;46715;40.642;-7.920;2022-09-25T06:36:35;96080.78;;;11.60;64.47
60874;BME280;46715;40.642;-7.920;2022-09-25T06:38:37;96080.66;;;11.71;64.55
60874;BME280;46715;40.642;-7.920;2022-09-25T06:40:37;96081.16;;;11.73;63.99
60874;BME280;46715;40.642;-7.920;2022-09-25T06:42:39;96079.94;;;11.65;64.67
60874;BME280;46715;40.642;-7.920;2022-09-25T06:44:40;96078.44;;;11.59;64.74
60874;BME280;46715;40.642;-7.920;2022-09-25T06:46:43;96078.09;;;11.66;64.25
60874;BME280;46715;40.642;-7.920;2022-09-25T06:48:51;96068.22;;;11.63;64.80
60874;BME280;46715;40.642;-7.920;2022-09-25T06:50:56;96071.00;;;11.71;64.67
60874;BME280;46715;40.642;-7.920;2022-09-25T06:52:59;96073.84;;;11.75;64.07
60874;BME280;46715;40.642;-7.920;2022-09-25T06:55:00;96076.59;;;11.84;64.26
60874;BME280;46715;40.642;-7.920;2022-09-25T06:57:01;96081.78;;;11.89;64.30
60874;BME280;46715;40.642;-7.920;2022-09-25T06:59:04;96083.03;;;11.97;63.41
60874;BME280;46715;40.642;-7.920;2022-09-25T07:01:05;96073.34;;;11.97;63.36
60874;BME280;46715;40.642;-7.920;2022-09-25T07:03:11;96082.97;;;12.02;63.08
60874;BME280;46715;40.642;-7.920;2022-09-25T07:05:31;96081.63;;;12.04;63.29
60874;BME280;46715;40.642;-7.920;2022-09-25T07:07:32;96074.84;;;12.03;63.33
60874;BME280;46715;40.642;-7.920;2022-09-25T07:09:33;96069.31;;;12.05;63.18
60874;BME280;46715;40.642;-7.920;2022-09-25T07:11:34;96073.94;;;12.13;62.63
60874;BME280;46715;40.642;-7.920;2022-09-25T07:13:35;96077.81;;;12.16;63.46
60874;BME280;46715;40.642;-7.920;2022-09-25T07:15:36;96075.38;;;12.24;62.96
60874;BME280;46715;40.642;-7.920;2022-09-25T07:17:41;96070.34;;;12.28;62.75
60874;BME280;46715;40.642;-7.920;2022-09-25T07:19:42;96071.22;;;12.42;62.33
60874;BME280;46715;40.642;-7.920;2022-09-25T07:21:43;96077.44;;;12.47;62.70
60874;BME280;46715;40.642;-7.920;2022-09-25T07:23:46;96073.59;;;12.58;61.66
60874;BME280;46715;40.642;-7.920;2022-09-25T07:25:48;96072.97;;;12.66;61.67
60874;BME280;46715;40.642;-7.920;2022-09-25T07:27:49;96081.22;;;12.92;61.13
60874;BME280;46715;40.642;-7.920;2022-09-25T07:29:50;96069.16;;;13.10;59.96
60874;BME280;46715;40.642;-7.920;2022-09-25T07:31:51;96074.34;;;13.43;59.25
60874;BME280;46715;40.642;-7.920;2022-09-25T07:33:52;96079.31;;;13.73;57.73
60874;BME280;46715;40.642;-7.920;2022-09-25T07:35:53;96076.59;;;13.92;57.46
60874;BME280;46715;40.642;-7.920;2022-09-25T07:37:57;96074.09;;;14.01;56.90
60874;BME280;46715;40.642;-7.920;2022-09-25T07:39:58;96071.91;;;14.53;55.74
60874;BME280;46715;40.642;-7.920;2022-09-25T07:41:58;96072.44;;;14.78;55.09
60874;BME280;46715;40.642;-7.920;2022-09-25T07:43:59;96076.00;;;15.27;53.38
60874;BME280;46715;40.642;-7.920;2022-09-25T07:46:00;96073.81;;;16.01;51.31
60874;BME280;46715;40.642;-7.920;2022-09-25T07:48:02;96078.66;;;15.76;51.67
60874;BME280;46715;40.642;-7.920;2022-09-25T07:50:03;96075.75;;;16.44;50.61
60874;BME280;46715;40.642;-7.920;2022-09-25T07:52:04;96069.50;;;17.66;47.60
60874;BME280;46715;40.642;-7.920;2022-09-25T07:54:06;96061.91;;;18.46;45.26
60874;BME280;46715;40.642;-7.920;2022-09-25T07:56:07;96061.69;;;18.93;44.10
60874;BME280;46715;40.642;-7.920;2022-09-25T07:58:08;96057.50;;;19.50;43.16
60874;BME280;46715;40.642;-7.920;2022-09-25T08:00:10;96059.84;;;20.14;41.35
60874;BME280;46715;40.642;-7.920;2022-09-25T08:02:12;96050.47;;;20.16;41.75
60874;BME280;46715;40.642;-7.920;2022-09-25T08:04:16;96063.00;;;20.32;40.68
60874;BME280;46715;40.642;-7.920;2022-09-25T08:06:17;96061.00;;;20.41;40.77
60874;BME280;46715;40.642;-7.920;2022-09-25T08:08:18;96071.50;;;21.06;40.08
60874;BME280;46715;40.642;-7.920;2022-09-25T08:10:19;96073.78;;;20.51;39.94
60874;BME280;46715;40.642;-7.920;2022-09-25T08:12:20;96069.66;;;20.66;40.15
60874;BME280;46715;40.642;-7.920;2022-09-25T08:14:24;96071.22;;;20.95;39.59
60874;BME280;46715;40.642;-7.920;2022-09-25T08:16:25;96088.47;;;21.50;38.60
60874;BME280;46715;40.642;-7.920;2022-09-25T08:18:26;96081.28;;;21.50;38.39
60874;BME280;46715;40.642;-7.920;2022-09-25T08:20:26;96089.22;;;21.50;38.53
60874;BME280;46715;40.642;-7.920;2022-09-25T08:22:27;96086.09;;;21.76;37.96
60874;BME280;46715;40.642;-7.920;2022-09-25T08:24:29;96078.94;;;22.12;37.64
60874;BME280;46715;40.642;-7.920;2022-09-25T08:26:30;96083.44;;;22.44;37.10
60874;BME280;46715;40.642;-7.920;2022-09-25T08:28:31;96077.06;;;22.13;37.09
60874;BME280;46715;40.642;-7.920;2022-09-25T08:30:32;96088.31;;;22.06;37.52
60874;BME280;46715;40.642;-7.920;2022-09-25T08:32:33;96082.09;;;22.18;36.94
60874;BME280;46715;40.642;-7.920;2022-09-25T08:34:34;96089.28;;;21.66;37.33
60874;BME280;46715;40.642;-7.920;2022-09-25T08:36:36;96092.56;;;21.47;37.73
60874;BME280;46715;40.642;-7.920;2022-09-25T08:38:36;96084.69;;;21.35;38.24
60874;BME280;46715;40.642;-7.920;2022-09-25T08:40:43;96088.78;;;21.32;38.35
60874;BME280;46715;40.642;-7.920;2022-09-25T08:42:48;96084.03;;;21.86;37.39
60874;BME280;46715;40.642;-7.920;2022-09-25T08:44:52;96092.97;;;21.61;37.33
60874;BME280;46715;40.642;-7.920;2022-09-25T08:47:19;96096.47;;;21.82;36.92
60874;BME280;46715;40.642;-7.920;2022-09-25T08:49:44;96084.56;;;21.43;37.40
60874;BME280;46715;40.642;-7.920;2022-09-25T08:51:48;96087.09;;;21.40;37.18
60874;BME280;46715;40.642;-7.920;2022-09-25T08:53:49;96091.13;;;21.50;37.46
60874;BME280;46715;40.642;-7.920;2022-09-25T08:55:50;96088.19;;;21.67;37.30
60874;BME280;46715;40.642;-7.920;2022-09-25T08:58:21;96078.31;;;21.68;36.98
60874;BME280;46715;40.642;-7.920;2022-09-25T09:00:23;96088.13;;;20.91;38.43
60874;BME280;46715;40.642;-7.920;2022-09-25T09:02:44;96089.28;;;20.77;38.99
60874;BME280;46715;40.642;-7.920;2022-09-25T09:04:52;96087.09;;;21.40;37.97
60874;BME280;46715;40.642;-7.920;2022-09-25T09:07:04;96094.75;;;21.57;37.55
60874;BME280;46715;40.642;-7.920;2022-09-25T09:09:18;96080.16;;;21.19;38.14
60874;BME280;46715;40.642;-7.920;2022-09-25T09:11:35;96094.41;;;21.91;37.58
60874;BME280;46715;40.642;-7.920;2022-09-25T09:17:48;96073.84;;;22.98;34.23
60874;BME280;46715;40.642;-7.920;2022-09-25T09:20:10;96079.88;;;23.14;33.82
60874;BME280;46715;40.642;-7.920;2022-09-25T09:22:14;96083.19;;;23.31;33.67
60874;BME280;46715;40.642;-7.920;2022-09-25T09:31:47;96086.09;;;24.22;32.20
60874;BME280;46715;40.642;-7.920;2022-09-25T09:33:34;96086.91;;;24.83;31.27
60874;BME280;46715;40.642;-7.920;2022-09-25T09:49:39;96081.56;;;24.83;31.47
60874;BME280;46715;40.642;-7.920;2022-09-25T09:51:51;96087.34;;;24.89;31.41
60874;BME280;46715;40.642;-7.920;2022-09-25T09:54:02;96087.00;;;24.94;30.34
60874;BME280;46715;40.642;-7.920;2022-09-25T09:56:29;96090.47;;;24.95;30.67
60874;BME280;46715;40.642;-7.920;2022-09-25T09:58:42;96088.34;;;25.11;30.95
60874;BME280;46715;40.642;-7.920;2022-09-25T10:00:47;96089.16;;;25.15;30.79
60874;BME280;46715;40.642;-7.920;2022-09-25T10:03:00;96081.09;;;25.12;30.52
60874;BME280;46715;40.642;-7.920;2022-09-25T10:05:07;96082.38;;;24.88;30.67
60874;BME280;46715;40.642;-7.920;2022-09-25T10:07:12;96082.03;;;24.89;31.30
60874;BME280;46715;40.642;-7.920;2022-09-25T10:09:15;96080.91;;;24.94;30.72
60874;BME280;46715;40.642;-7.920;2022-09-25T10:11:17;96075.69;;;24.71;30.37
60874;BME280;46715;40.642;-7.920;2022-09-25T10:13:23;96087.50;;;23.39;32.88
60874;BME280;46715;40.642;-7.920;2022-09-25T10:16:04;96098.75;;;21.99;34.65
60874;BME280;46715;40.642;-7.920;2022-09-25T10:18:05;96093.13;;;21.08;36.99
60874;BME280;46715;40.642;-7.920;2022-09-25T10:20:16;96090.25;;;20.32;37.99
60874;BME280;46715;40.642;-7.920;2022-09-25T10:22:22;96092.75;;;19.88;39.28
60874;BME280;46715;40.642;-7.920;2022-09-25T10:24:45;96094.09;;;19.36;41.14
60874;BME280;46715;40.642;-7.920;2022-09-25T10:26:51;96092.72;;;19.17;41.54
60874;BME280;46715;40.642;-7.920;2022-09-25T10:28:53;96089.84;;;19.22;41.19
60874;BME280;46715;40.642;-7.920;2022-09-25T10:30:57;96088.06;;;19.02;42.09
60874;BME280;46715;40.642;-7.920;2022-09-25T10:33:10;96078.63;;;19.13;40.84
60874;BME280;46715;40.642;-7.920;2022-09-25T10:35:24;96074.91;;;18.93;41.24
60874;BME280;46715;40.642;-7.920;2022-09-25T10:37:30;96074.59;;;18.73;41.88
60874;BME280;46715;40.642;-7.920;2022-09-25T10:39:35;96083.09;;;18.58;42.62
60874;BME280;46715;40.642;-7.920;2022-09-25T10:41:42;96085.56;;;18.63;43.36
60874;BME280;46715;40.642;-7.920;2022-09-25T10:43:56;96093.91;;;18.65;43.68
60874;BME280;46715;40.642;-7.920;2022-09-25T10:46:14;96095.47;;;18.87;43.27
60874;BME280;46715;40.642;-7.920;2022-09-25T10:48:26;96094.44;;;18.80;41.20
60874;BME280;46715;40.642;-7.920;2022-09-25T10:51:06;96082.19;;;18.75;41.23
60874;BME280;46715;40.642;-7.920;2022-09-25T10:53:24;96089.72;;;18.85;41.58
60874;BME280;46715;40.642;-7.920;2022-09-25T10:55:40;96089.03;;;18.76;41.57
60874;BME280;46715;40.642;-7.920;2022-09-25T10:57:45;96091.75;;;18.67;41.01
60874;BME280;46715;40.642;-7.920;2022-09-25T10:59:50;96096.38;;;18.70;40.90
60874;BME280;46715;40.642;-7.920;2022-09-25T11:01:53;96082.66;;;18.77;41.65
60874;BME280;46715;40.642;-7.920;2022-09-25T11:03:56;96078.44;;;18.97;42.43
60874;BME280;46715;40.642;-7.920;2022-09-25T11:08:12;96088.69;;;19.45;42.68
60874;BME280;46715;40.642;-7.920;2022-09-25T11:10:20;96070.84;;;19.41;41.24
60874;BME280;46715;40.642;-7.920;2022-09-25T11:12:25;96071.72;;;19.33;39.90
60874;BME280;46715;40.642;-7.920;2022-09-25T11:14:34;96068.78;;;19.01;40.91
60874;BME280;46715;40.642;-7.920;2022-09-25T11:18:45;96068.13;;;19.04;41.09
60874;BME280;46715;40.642;-7.920;2022-09-25T11:21:00;96083.38;;;19.20;40.27
60874;BME280;46715;40.642;-7.920;2022-09-25T11:25:26;96070.38;;;19.15;40.40
60874;BME280;46715;40.642;-7.920;2022-09-25T11:27:42;96056.06;;;19.16;40.17
60874;BME280;46715;40.642;-7.920;2022-09-25T11:32:32;96062.69;;;19.34;40.51
60874;BME280;46715;40.642;-7.920;2022-09-25T11:37:23;96052.81;;;19.56;38.74
60874;BME280;46715;40.642;-7.920;2022-09-25T11:39:37;96046.53;;;19.61;39.70
60874;BME280;46715;40.642;-7.920;2022-09-25T11:42:13;96048.72;;;19.58;40.05
60874;BME280;46715;40.642;-7.920;2022-09-25T11:45:14;96041.78;;;19.54;39.70
60874;BME280;46715;40.642;-7.920;2022-09-25T11:47:24;96042.66;;;19.58;39.46
60874;BME280;46715;40.642;-7.920;2022-09-25T11:49:35;96048.75;;;19.83;40.36
60874;BME280;46715;40.642;-7.920;2022-09-25T11:51:58;96047.09;;;19.91;40.20
60874;BME280;46715;40.642;-7.920;2022-09-25T12:00:55;96036.06;;;19.89;39.45
60874;BME280;46715;40.642;-7.920;2022-09-25T12:08:41;96033.97;;;19.82;39.41